Terminal Aerodrome Forecast
Issued by NWS

Home | Current Version | Previous Version | Text Only | Print | Product List | Glossary On
Versions: 1 2 3 4 5 6 7 8 9 10 11 12 13 14 15 16 17 18 19
847
FTUS43 KBIS 251721
TAFJMS
TAF
KJMS 251721Z 2518/2618 01017G25KT P6SM OVC012
     FM260800 01015G24KT P6SM OVC008
     FM261400 01015G24KT P6SM OVC010=

USA.gov is the U.S. government's official web portal to all federal, state and local government web resources and services.